Pine Plains, NY (12567)

3:19 AM EST on February 01, 2015 (GMT -0500)
Pine Plains | Change Station
CLOSE
Current Station
Personal Weather Station
Location: Pine Plains, NY
Elevation: 640 ft
Nearby Weather Stations
Active Advisory: Winter Storm Warning

Elev 640 ft 41.96 °N, 73.63 °W | Updated 1 second ago

Overcast
Overcast
7.3 °F
Feels Like 7 °F
N
0.0
Wind Variable Wind from SE
Gusts 0.0 mph

Today
High -- | Low -- °F
--% Chance of Precip.
Yesterday
High -- | Low -- °F
Precip. -- in
7:07 AM 5:09 PM
Waxing Gibbous, 94% visible
Pressure 30.16 in
Visibility 10.0 miles
Clouds Scattered Clouds 4900 ft
Overcast 6000 ft
Windchill 7 °F
Dew Point 3 °F
Humidity 83%
Rainfall 0.00 in
Snow Depth Not available.
UV 0 out of 12
Pollen .10 out of 12
Air Quality Not available.
Flu Activity Not available.
METAR KPOU 010753Z 00000KT 10SM SCT049 OVC060 M12/M17 A3016 RMK AO2 SLP213 T11171167

More Conditions Fewer Conditions

Pressure 30.16 in
Visibility 10.0 miles
Clouds Scattered Clouds 4900 ft
Overcast 6000 ft
Windchill 7 °F
Dew Point 3 °F
Humidity 83%
Rainfall 0.00 in
Snow Depth Not available.
UV 0 out of 12
Pollen .10 out of 12
Air Quality Not available.
Flu Activity Not available.
METAR KPOU 010753Z 00000KT 10SM SCT049 OVC060 M12/M17 A3016 RMK AO2 SLP213 T11171167

More Conditions Fewer Conditions

10-Day Weather Forecast

Almanac

Astronomy

Feb. 01, 2015 Rise Set
Actual Time
Civil Twilight
Nautical Twilight
Astronomical Twilight
Moon
Length of Visible Light
Length of Day
Tomorrow will be .
, % of the Moon is Illuminated

Today's Extremes

State Highs State Lows

Community

WunderPhotos

Upload Photos

1,792,327 photos uploaded!

WunderBlogs® & News

Nearby

Air Quality

  Air Quality AQ Index Pollutant
Not available.

Snow Depth

Station Depth Elevation

Earthquake Activity

City Distance Mag. Time & Date
Minimum magnitude displayed is 2.5.

Coastal Water Temperatures

Place Temperature

Nearby Weather Stations